createdAt,value
2018-06-19T00:00:53.693Z,64.23
2018-06-19T00:05:50.407Z,65.28
2018-06-19T00:10:47.212Z,65.56
2018-06-19T00:15:43.948Z,65.29
2018-06-19T00:20:40.806Z,64.89
2018-06-19T00:25:37.637Z,66.05
2018-06-19T00:30:34.436Z,65.85
2018-06-19T00:35:31.154Z,66.01
2018-06-19T00:40:27.943Z,66.24
2018-06-19T00:45:24.732Z,66.06
2018-06-19T00:50:21.482Z,66.81
2018-06-19T00:55:18.190Z,67.47
2018-06-19T01:00:14.966Z,68.21
2018-06-19T01:05:11.598Z,68.48
2018-06-19T01:10:08.365Z,68.37
2018-06-19T01:15:05.217Z,68.67
2018-06-19T01:20:02.221Z,68.14
2018-06-19T01:24:58.881Z,68.93
2018-06-19T01:29:55.655Z,69.02
2018-06-19T01:34:52.383Z,69.52
2018-06-19T01:39:49.103Z,69.21
2018-06-19T01:44:45.781Z,69.28
2018-06-19T01:49:42.541Z,70.02
2018-06-19T01:54:39.254Z,69.96
2018-06-19T01:59:36.007Z,69.88
2018-06-19T02:04:32.701Z,69.47
2018-06-19T02:09:29.434Z,69.76
2018-06-19T02:14:26.272Z,69.81
2018-06-19T02:19:23.029Z,70.20
2018-06-19T02:24:19.765Z,70.00
2018-06-19T02:29:16.498Z,70.25
2018-06-19T02:34:13.134Z,69.46
2018-06-19T02:39:12.747Z,69.10
2018-06-19T02:44:09.810Z,68.89
2018-06-19T02:49:06.506Z,69.14
2018-06-19T02:54:03.401Z,69.17
2018-06-19T02:59:00.229Z,69.71
2018-06-19T03:03:57.355Z,69.91
2018-06-19T03:08:54.131Z,70.44
2018-06-19T03:13:50.973Z,71.40
2018-06-19T03:18:47.710Z,71.85
2018-06-19T03:23:44.523Z,71.91
2018-06-19T03:28:41.182Z,72.41
2018-06-19T03:33:37.977Z,72.50
2018-06-19T03:38:34.778Z,72.87
2018-06-19T03:43:31.503Z,73.29
2018-06-19T03:48:28.177Z,73.17
2018-06-19T03:53:24.903Z,73.44
2018-06-19T03:58:21.709Z,73.01
2018-06-19T04:03:18.884Z,72.78
2018-06-19T04:08:15.601Z,72.97
2018-06-19T04:13:12.312Z,72.81
2018-06-19T04:18:09.282Z,72.94
2018-06-19T04:23:06.231Z,71.84
2018-06-19T04:28:02.891Z,71.42
2018-06-19T04:32:58.892Z,69.52
2018-06-19T04:37:55.740Z,67.08
2018-06-19T04:42:52.579Z,61.53
2018-06-19T04:47:49.280Z,56.25
2018-06-19T04:52:46.012Z,52.92
2018-06-19T04:57:42.818Z,53.54
2018-06-19T05:02:40.004Z,57.47
2018-06-19T05:07:35.934Z,60.18
2018-06-19T05:12:32.708Z,62.51
2018-06-19T05:17:29.447Z,62.19
2018-06-19T05:22:26.210Z,63.06
2018-06-19T05:27:24.808Z,63.06
2018-06-19T05:32:21.768Z,59.03
2018-06-19T05:37:18.452Z,55.60
2018-06-19T05:42:15.149Z,54.60
2018-06-19T05:47:14.190Z,52.72
2018-06-19T05:52:10.895Z,53.00
2018-06-19T05:57:07.649Z,53.34
2018-06-19T06:02:04.525Z,53.17
2018-06-19T06:07:01.159Z,52.29
2018-06-19T06:11:57.832Z,51.74
2018-06-19T06:16:54.469Z,53.14
2018-06-19T06:21:51.415Z,52.65
2018-06-19T06:26:48.366Z,52.28
2018-06-19T06:31:45.106Z,52.82
2018-06-19T06:36:41.843Z,51.38
2018-06-19T06:41:45.163Z,51.79
2018-06-19T06:46:43.689Z,50.90
2018-06-19T06:51:40.249Z,49.75
2018-06-19T06:56:44.356Z,47.56
2018-06-19T07:01:43.937Z,45.41
2018-06-19T07:06:40.508Z,44.05
2018-06-19T07:11:37.479Z,43.20
2018-06-19T07:16:40.430Z,42.66
2018-06-19T07:21:47.187Z,42.85
2018-06-19T07:26:43.882Z,43.29
2018-06-19T07:31:40.262Z,43.45
2018-06-19T07:36:37.969Z,45.99
2018-06-19T07:41:34.772Z,44.21
2018-06-19T07:46:30.562Z,43.87
2018-06-19T07:51:26.373Z,42.29
2018-06-19T07:56:22.499Z,41.54
2018-06-19T08:01:18.566Z,40.37
2018-06-19T08:06:19.748Z,41.80
2018-06-19T08:11:16.246Z,40.80
2018-06-19T08:16:14.936Z,43.39
2018-06-19T08:21:11.864Z,44.58
2018-06-19T08:26:18.885Z,44.82
2018-06-19T08:31:14.569Z,42.97
2018-06-19T08:36:13.938Z,41.72
2018-06-19T08:41:18.825Z,40.16
2018-06-19T08:46:15.763Z,40.56
2018-06-19T08:51:10.982Z,39.35
2018-06-19T08:56:07.956Z,38.17
2018-06-19T09:01:05.888Z,39.33
2018-06-19T09:06:01.727Z,38.23
2018-06-19T09:10:57.504Z,37.90
2018-06-19T09:15:53.263Z,37.98
2018-06-19T09:20:48.782Z,37.47
2018-06-19T09:25:44.540Z,37.26
2018-06-19T09:30:52.458Z,37.09
2018-06-19T09:35:47.888Z,37.61
2018-06-19T09:40:43.360Z,36.66
2018-06-19T09:45:38.761Z,38.38
2018-06-19T09:50:34.204Z,38.55
2018-06-19T09:55:30.747Z,37.53
2018-06-19T10:00:34.586Z,38.12
2018-06-19T10:05:30.973Z,37.09
2018-06-19T10:10:26.282Z,37.58
2018-06-19T10:15:21.701Z,36.34
2018-06-19T10:20:16.935Z,36.26
2018-06-19T10:25:12.234Z,37.03
2018-06-19T10:30:07.984Z,37.07
2018-06-19T10:35:03.488Z,37.08
2018-06-19T10:39:58.817Z,38.32
2018-06-19T10:44:55.018Z,38.90
2018-06-19T10:49:50.070Z,39.38
2018-06-19T10:54:45.822Z,38.60
2018-06-19T10:59:40.959Z,37.53
2018-06-19T11:04:36.031Z,36.34
2018-06-19T11:09:31.265Z,37.66
2018-06-19T11:14:30.604Z,37.46
2018-06-19T11:19:26.244Z,38.32
2018-06-19T11:24:21.682Z,36.76
2018-06-19T11:29:17.159Z,36.44
2018-06-19T11:34:12.722Z,35.71
2018-06-19T11:39:14.407Z,35.82
2018-06-19T11:44:08.880Z,37.10
2018-06-19T11:49:03.482Z,35.69
2018-06-19T11:53:58.900Z,34.25
2018-06-19T11:58:54.186Z,33.67
2018-06-19T12:03:49.793Z,35.53
2018-06-19T12:08:48.910Z,35.93
2018-06-19T12:13:43.888Z,35.98
2018-06-19T12:18:41.265Z,34.89
2018-06-19T12:23:39.056Z,35.69
2018-06-19T12:28:35.058Z,36.47
2018-06-19T12:33:37.052Z,36.64
2018-06-19T12:38:33.566Z,38.91
2018-06-19T12:43:30.061Z,39.68
2018-06-19T12:48:30.157Z,39.06
2018-06-19T12:53:41.801Z,37.75
2018-06-19T12:58:36.217Z,35.69
2018-06-19T13:03:47.836Z,35.32
2018-06-19T13:08:43.945Z,36.34
2018-06-19T13:13:49.775Z,35.38
2018-06-19T13:19:01.459Z,36.87
2018-06-19T13:24:07.176Z,37.81
2018-06-19T13:29:54.911Z,36.88
2018-06-19T13:35:01.023Z,35.53
2018-06-19T13:41:23.837Z,35.73
2018-06-19T13:46:27.870Z,36.22
2018-06-19T13:51:31.393Z,36.74
2018-06-19T13:57:49.464Z,35.85
2018-06-19T14:02:56.591Z,38.16
2018-06-19T14:08:19.813Z,39.05
2018-06-19T14:13:26.232Z,38.89
2018-06-19T14:18:34.509Z,37.64
2018-06-19T14:23:40.646Z,38.42
2018-06-19T14:28:44.973Z,39.33
2018-06-19T14:33:48.557Z,39.51
2018-06-19T14:38:53.701Z,37.83
2018-06-19T14:43:59.924Z,38.67
2018-06-19T14:49:07.875Z,38.56
2018-06-19T14:54:13.480Z,39.16
2018-06-19T14:59:20.722Z,37.88
2018-06-19T15:04:24.748Z,38.22
2018-06-19T15:09:19.530Z,39.80
2018-06-19T15:14:13.981Z,39.36
2018-06-19T15:19:08.509Z,40.28
2018-06-19T15:24:07.024Z,39.21
2018-06-19T15:29:06.778Z,38.91
2018-06-19T15:34:01.906Z,38.11
2018-06-19T15:38:56.320Z,38.18
2018-06-19T15:43:50.744Z,37.86
2018-06-19T15:48:45.247Z,38.21
2018-06-19T15:53:39.810Z,38.08
2018-06-19T15:58:34.623Z,38.85
2018-06-19T16:03:29.066Z,38.33
2018-06-19T16:08:23.765Z,38.55
2018-06-19T16:13:18.484Z,38.66
2018-06-19T16:18:13.804Z,38.32
2018-06-19T16:23:08.436Z,37.94
2018-06-19T16:28:03.009Z,37.69
2018-06-19T16:32:57.689Z,36.72
2018-06-19T16:37:52.248Z,36.45
2018-06-19T16:42:46.701Z,36.88
2018-06-19T16:47:41.242Z,37.11
2018-06-19T16:52:35.762Z,37.54
2018-06-19T16:57:31.540Z,36.67
2018-06-19T17:02:25.984Z,37.44
2018-06-19T17:07:20.447Z,38.37
2018-06-19T17:12:14.897Z,38.18
2018-06-19T17:17:09.412Z,38.05
2018-06-19T17:22:04.985Z,37.23
2018-06-19T17:26:59.394Z,37.87
2018-06-19T17:31:53.964Z,37.19
2018-06-19T17:36:48.437Z,37.07
2018-06-19T17:41:42.893Z,37.37
2018-06-19T17:46:37.356Z,38.39
2018-06-19T17:51:31.780Z,37.26
2018-06-19T17:56:26.307Z,38.03
2018-06-19T18:01:20.757Z,38.16
2018-06-19T18:06:15.169Z,38.91
2018-06-19T18:11:09.628Z,38.07
2018-06-19T18:16:04.062Z,37.72
2018-06-19T18:20:58.519Z,38.29
2018-06-19T18:25:52.941Z,38.70
2018-06-19T18:30:47.689Z,37.86
2018-06-19T18:35:43.204Z,38.87
2018-06-19T18:40:37.629Z,38.18
2018-06-19T18:45:32.223Z,38.25
2018-06-19T18:50:26.665Z,35.03
2018-06-19T18:55:21.061Z,32.51
2018-06-19T19:00:15.537Z,33.98
2018-06-19T19:05:10.077Z,39.11
2018-06-19T19:10:10.521Z,39.81
2018-06-19T19:15:10.404Z,41.29
2018-06-19T19:20:04.896Z,42.66
2018-06-19T19:24:59.436Z,45.58
2018-06-19T19:29:53.940Z,46.52
2018-06-19T19:34:48.459Z,47.40
2018-06-19T19:39:42.928Z,48.25
2018-06-19T19:44:37.090Z,48.62
2018-06-19T19:49:31.508Z,49.12
2018-06-19T19:54:26.080Z,49.79
2018-06-19T19:59:20.574Z,50.24
2018-06-19T20:04:15.462Z,50.29
2018-06-19T20:09:10.453Z,52.36
2018-06-19T20:14:05.138Z,52.77
2018-06-19T20:18:59.567Z,53.50
2018-06-19T20:23:54.045Z,53.21
2018-06-19T20:28:48.454Z,53.94
2018-06-19T20:33:43.813Z,55.01
2018-06-19T20:38:38.280Z,55.79
2018-06-19T20:43:32.805Z,55.69
2018-06-19T20:48:27.290Z,55.84
2018-06-19T20:53:21.681Z,56.99
2018-06-19T20:58:16.376Z,57.12
2018-06-19T21:03:10.962Z,56.55
2018-06-19T21:08:05.924Z,57.15
2018-06-19T21:13:00.412Z,57.33
2018-06-19T21:17:54.856Z,57.98
2018-06-19T21:22:49.376Z,58.63
2018-06-19T21:27:43.781Z,58.75
2018-06-19T21:32:38.218Z,58.86
2018-06-19T21:37:32.621Z,59.16
2018-06-19T21:42:27.068Z,59.12
2018-06-19T21:47:21.728Z,59.69
2018-06-19T21:52:16.312Z,60.13
2018-06-19T21:57:10.881Z,60.76
2018-06-19T22:02:05.578Z,60.99
2018-06-19T22:07:00.050Z,59.46
2018-06-19T22:11:54.527Z,60.44
2018-06-19T22:16:48.942Z,61.03
2018-06-19T22:21:43.379Z,62.26
2018-06-19T22:26:37.810Z,62.04
2018-06-19T22:31:32.231Z,61.95
2018-06-19T22:36:26.937Z,62.23
2018-06-19T22:41:21.725Z,62.10
2018-06-19T22:46:16.167Z,62.15
2018-06-19T22:51:10.643Z,62.40
2018-06-19T22:56:05.157Z,62.99
2018-06-19T23:00:59.584Z,63.68
2018-06-19T23:05:54.005Z,62.15
2018-06-19T23:10:48.441Z,62.06
2018-06-19T23:15:42.829Z,62.77
2018-06-19T23:20:37.257Z,64.17
2018-06-19T23:25:31.661Z,64.69
2018-06-19T23:30:26.069Z,64.84
2018-06-19T23:35:20.488Z,64.96
2018-06-19T23:40:14.943Z,64.99
2018-06-19T23:45:09.359Z,65.83
2018-06-19T23:50:03.655Z,65.70
2018-06-19T23:54:58.090Z,66.27
2018-06-19T23:59:52.572Z,66.60
